Time;durP1;ratioP1;P1;durP2;ratioP2;P2;SDS_P1;SDS_P2;PMS_P1;PMS_P2;Temp;Humidity;BMP_temperature;BMP_pressure;BME280_temperature;BME280_humidity;BME280_pressure;Samples;Min_cycle;Max_cycle;Signal;HPM_P1;HPM_P2
2022/04/05 00:02:10;;;;;;;10.87;10.17;;;;;;;4.85;75.08;92588.91;5009233;28;20199;-76
2022/04/05 00:04:35;;;;;;;11.03;10.30;;;;;;;4.90;75.22;92586.38;5012566;28;20231;-75
2022/04/05 00:07:01;;;;;;;11.57;10.97;;;;;;;5.01;75.40;92594.22;5013143;28;20194;-75
2022/04/05 00:09:26;;;;;;;11.00;10.40;;;;;;;4.93;74.75;92572.94;5011507;28;20231;-73
2022/04/05 00:11:51;;;;;;;11.53;10.83;;;;;;;4.97;74.25;92589.53;5012589;28;20199;-74
2022/04/05 00:14:17;;;;;;;13.13;12.30;;;;;;;4.87;74.54;92576.50;5012125;28;20230;-75
2022/04/05 00:16:42;;;;;;;11.83;10.93;;;;;;;4.88;75.13;92583.25;5012899;28;20224;-74
2022/04/05 00:19:08;;;;;;;12.20;11.30;;;;;;;4.80;75.64;92575.94;5012299;28;20219;-75
2022/04/05 00:21:34;;;;;;;9.33;8.83;;;;;;;4.68;76.14;92567.56;5012795;28;20224;-74
2022/04/05 00:24:00;;;;;;;10.90;10.33;;;;;;;4.69;75.94;92569.09;5011167;28;20235;-75
2022/04/05 00:26:25;;;;;;;10.90;10.20;;;;;;;4.72;75.87;92571.19;5011489;28;20230;-75
2022/04/05 00:28:50;;;;;;;11.43;10.63;;;;;;;4.70;76.37;92575.06;5012049;28;20231;-75
2022/04/05 00:31:16;;;;;;;11.23;10.63;;;;;;;4.75;75.61;92573.28;5013201;28;20195;-74
2022/04/05 00:33:41;;;;;;;10.97;10.33;;;;;;;4.60;76.52;92564.59;5011707;28;20227;-75
2022/04/05 00:36:07;;;;;;;11.30;10.67;;;;;;;4.33;77.24;92562.00;5012366;28;20215;-75
2022/04/05 00:38:32;;;;;;;10.17;9.57;;;;;;;4.46;76.88;92564.22;5011731;28;20243;-74
2022/04/05 00:40:59;;;;;;;10.93;10.33;;;;;;;4.41;77.69;92556.41;5012261;28;20208;-75
2022/04/05 00:43:25;;;;;;;10.93;10.13;;;;;;;4.41;77.38;92558.97;5011240;28;20235;-75
2022/04/05 00:45:50;;;;;;;10.87;10.27;;;;;;;4.26;78.10;92561.41;5011229;28;20225;-75
2022/04/05 00:48:35;;;;;;;9.77;9.27;;;;;;;4.20;77.18;92562.34;5011266;28;20223;-75
2022/04/05 00:51:00;;;;;;;10.70;10.10;;;;;;;4.07;79.28;92554.19;5011632;28;20192;-75
2022/04/05 00:53:29;;;;;;;11.13;10.43;;;;;;;4.01;79.20;92529.31;5011685;28;20231;-74
2022/04/05 00:55:57;;;;;;;11.27;10.67;;;;;;;4.18;79.19;92556.66;5011942;28;20215;-75
2022/04/05 00:58:24;;;;;;;10.57;10.07;;;;;;;4.09;79.40;92552.16;5010675;28;20839;-75
2022/04/05 01:00:50;;;;;;;10.00;9.60;;;;;;;4.12;78.41;92552.47;5010969;28;20171;-75
2022/04/05 01:03:16;;;;;;;9.93;9.43;;;;;;;4.15;78.67;92544.22;5011782;28;20226;-75
2022/04/05 01:05:43;;;;;;;10.30;9.70;;;;;;;4.03;78.46;92543.53;5010785;28;20190;-75
2022/04/05 01:08:12;;;;;;;10.13;9.60;;;;;;;4.01;78.36;92539.66;5010754;28;20227;-74
2022/04/05 01:10:38;;;;;;;10.57;10.07;;;;;;;3.87;79.66;92534.06;5010982;28;20188;-75
2022/04/05 01:13:04;;;;;;;10.63;10.23;;;;;;;3.95;79.35;92545.78;5010565;28;20223;-75
2022/04/05 01:15:29;;;;;;;10.77;10.27;;;;;;;3.81;79.07;92540.19;5010000;28;20206;-75
2022/04/05 01:17:55;;;;;;;9.63;9.23;;;;;;;3.64;79.46;92542.03;5010352;28;20225;-75
2022/04/05 01:20:21;;;;;;;9.90;9.50;;;;;;;3.64;80.15;92523.97;5010025;28;20198;-75
2022/04/05 01:22:53;;;;;;;10.87;10.37;;;;;;;3.59;80.48;92528.28;5009643;28;20199;-74
2022/04/05 01:25:20;;;;;;;10.43;9.93;;;;;;;3.62;79.66;92535.53;5011067;28;20298;-74
2022/04/05 01:27:46;;;;;;;10.07;9.67;;;;;;;3.68;80.38;92543.09;5010817;28;20271;-74
2022/04/05 01:30:12;;;;;;;9.40;9.00;;;;;;;3.69;80.48;92560.16;5011231;28;20183;-74
2022/04/05 01:32:38;;;;;;;9.60;9.10;;;;;;;3.68;80.11;92553.44;5011318;28;20203;-74
2022/04/05 01:35:05;;;;;;;11.80;11.00;;;;;;;3.53;79.69;92530.00;5009807;28;20227;-75
2022/04/05 01:37:32;;;;;;;10.57;10.07;;;;;;;3.46;79.87;92531.97;5011053;28;20234;-75
2022/04/05 01:39:57;;;;;;;11.80;11.10;;;;;;;3.48;79.97;92550.59;5010304;28;20235;-75
2022/04/05 01:42:23;;;;;;;10.47;9.87;;;;;;;3.51;80.57;92552.69;5011057;28;20246;-75
2022/04/05 01:44:48;;;;;;;9.83;9.33;;;;;;;3.50;80.36;92548.56;5010665;28;20226;-74
2022/04/05 01:47:16;;;;;;;11.30;10.60;;;;;;;3.49;80.67;92546.22;5011022;28;20341;-75
2022/04/05 01:49:44;;;;;;;11.40;10.80;;;;;;;3.44;80.49;92543.56;5010200;28;20228;-75
2022/04/05 01:52:10;;;;;;;10.37;9.80;;;;;;;3.38;81.22;92547.84;5009514;28;20199;-75
2022/04/05 01:54:37;;;;;;;9.87;9.37;;;;;;;3.36;81.45;92552.47;5009941;28;20826;-75
2022/04/05 01:57:03;;;;;;;10.20;9.77;;;;;;;3.32;81.24;92546.22;5010215;28;20266;-75
2022/04/05 01:59:32;;;;;;;9.77;9.37;;;;;;;3.33;81.07;92537.47;5009817;28;20242;-75
2022/04/05 02:01:58;;;;;;;11.10;10.60;;;;;;;3.20;81.36;92519.72;5009106;28;20223;-75
2022/04/05 02:04:24;;;;;;;9.93;9.33;;;;;;;3.17;81.13;92527.94;5010316;28;20234;-75
2022/04/05 02:06:49;;;;;;;10.37;9.77;;;;;;;2.98;81.15;92501.63;5010844;28;20251;-74
2022/04/05 02:09:16;;;;;;;11.27;10.37;;;;;;;3.21;81.64;92531.59;5010207;28;20219;-76
2022/04/05 02:11:44;;;;;;;9.53;9.13;;;;;;;3.24;81.19;92525.97;5010433;28;20211;-75
2022/04/05 02:14:11;;;;;;;10.90;10.50;;;;;;;3.22;81.28;92521.03;5009876;28;20261;-76
2022/04/05 02:16:37;;;;;;;10.17;9.57;;;;;;;3.27;80.96;92515.19;5010498;28;20225;-76
2022/04/05 02:19:02;;;;;;;10.40;9.80;;;;;;;3.14;81.53;92521.44;5009582;28;20238;-76
2022/04/05 02:21:28;;;;;;;10.77;10.27;;;;;;;3.19;81.51;92524.09;5010112;28;20250;-75
2022/04/05 02:23:53;;;;;;;11.13;10.53;;;;;;;3.03;82.51;92512.00;5010226;28;20227;-75
2022/04/05 02:26:19;;;;;;;9.40;8.97;;;;;;;3.08;82.49;92511.31;5010217;28;20234;-76
2022/04/05 02:28:44;;;;;;;10.07;9.57;;;;;;;3.01;82.73;92500.34;5010230;28;20238;-76
2022/04/05 02:31:10;;;;;;;10.10;9.70;;;;;;;2.72;81.99;92452.50;5011414;28;20286;-76
2022/04/05 02:33:35;;;;;;;10.77;10.20;;;;;;;3.12;82.58;92499.50;5009650;28;20227;-76
2022/04/05 02:36:03;;;;;;;10.80;10.30;;;;;;;3.09;82.60;92500.75;5009865;28;20199;-75
2022/04/05 02:38:29;;;;;;;10.60;10.17;;;;;;;3.07;82.21;92499.41;5008690;28;20238;-75
2022/04/05 02:40:57;;;;;;;10.93;10.27;;;;;;;3.11;81.59;92493.53;5008871;28;20191;-76
2022/04/05 02:43:23;;;;;;;8.90;8.60;;;;;;;3.09;81.71;92494.81;5008536;28;20249;-76
2022/04/05 02:45:49;;;;;;;10.87;10.37;;;;;;;3.02;80.89;92494.16;5008879;28;20198;-75
2022/04/05 02:48:14;;;;;;;10.70;10.10;;;;;;;3.09;81.45;92502.53;5008256;28;20227;-75
2022/04/05 02:50:40;;;;;;;9.13;8.77;;;;;;;2.79;81.98;92463.41;5008630;28;20215;-75
2022/04/05 02:53:05;;;;;;;11.37;10.87;;;;;;;3.10;82.07;92498.94;5008374;28;20223;-76
2022/04/05 02:55:31;;;;;;;10.20;9.80;;;;;;;2.92;80.83;92474.19;5009124;28;20200;-75
2022/04/05 02:57:56;;;;;;;9.73;9.33;;;;;;;3.14;80.94;92492.31;5008377;28;20254;-75
2022/04/05 03:00:22;;;;;;;9.43;8.93;;;;;;;2.93;81.43;92474.97;5009589;28;20195;-73
2022/04/05 03:02:47;;;;;;;10.53;10.13;;;;;;;3.07;81.42;92489.88;5008574;28;20184;-75
2022/04/05 03:05:19;;;;;;;9.93;9.53;;;;;;;3.11;80.71;92482.47;5009746;28;20187;-76
2022/04/05 03:07:44;;;;;;;9.40;8.70;;;;;;;3.03;80.94;92481.06;5008985;28;20246;-75
2022/04/05 03:10:11;;;;;;;10.67;10.27;;;;;;;2.94;81.04;92473.97;5009559;28;20190;-78
2022/04/05 03:12:37;;;;;;;8.73;8.40;;;;;;;3.02;81.52;92479.50;5009382;28;20207;-75
2022/04/05 03:15:04;;;;;;;10.67;10.17;;;;;;;2.91;81.50;92474.44;5009221;28;20242;-75
2022/04/05 03:17:30;;;;;;;10.03;9.63;;;;;;;2.81;82.32;92474.28;5008730;28;20215;-75
2022/04/05 03:19:55;;;;;;;9.57;9.27;;;;;;;2.80;82.82;92475.31;5009607;28;20234;-75
2022/04/05 03:22:21;;;;;;;9.47;9.07;;;;;;;2.69;83.25;92466.59;5009369;28;20278;-75
2022/04/05 03:24:46;;;;;;;10.83;10.23;;;;;;;2.72;83.26;92453.28;5008815;28;20242;-75
2022/04/05 03:27:12;;;;;;;9.73;9.40;;;;;;;2.86;82.65;92471.78;5007982;28;20179;-75
2022/04/05 03:29:38;;;;;;;10.13;9.40;;;;;;;2.74;82.09;92466.69;5008032;28;20219;-75
2022/04/05 03:32:04;;;;;;;9.70;9.20;;;;;;;2.76;82.71;92453.56;5010073;28;20193;-75
2022/04/05 03:34:30;;;;;;;10.53;10.00;;;;;;;2.69;82.25;92447.81;5009200;28;20243;-75
2022/04/05 03:36:56;;;;;;;10.67;10.27;;;;;;;2.72;82.39;92452.50;5009503;28;20219;-75
2022/04/05 03:39:22;;;;;;;8.37;8.07;;;;;;;2.81;82.54;92472.50;5013290;28;20697;-75
2022/04/05 03:41:47;;;;;;;11.47;10.87;;;;;;;2.68;82.13;92472.00;5012221;28;20187;-75
2022/04/05 03:44:13;;;;;;;10.23;9.83;;;;;;;2.68;83.63;92469.41;5010404;28;20262;-75
2022/04/05 03:46:39;;;;;;;10.93;10.23;;;;;;;2.70;83.16;92469.97;5011556;28;20202;-75
2022/04/05 03:49:04;;;;;;;10.87;10.17;;;;;;;2.60;83.46;92464.69;5011993;28;20226;-75
2022/04/05 03:51:30;;;;;;;9.93;9.53;;;;;;;2.63;83.00;92453.91;5012308;28;20203;-75
2022/04/05 03:53:57;;;;;;;11.30;10.73;;;;;;;2.68;83.07;92466.84;5010769;28;20231;-76
2022/04/05 03:56:23;;;;;;;10.43;9.97;;;;;;;2.78;83.34;92467.00;5011220;28;20199;-76
2022/04/05 03:58:49;;;;;;;9.50;9.07;;;;;;;2.61;82.72;92466.22;5012440;28;20231;-76
2022/04/05 04:01:15;;;;;;;9.47;9.07;;;;;;;2.62;83.61;92468.56;5012900;28;20190;-76
2022/04/05 04:03:41;;;;;;;10.07;9.67;;;;;;;2.41;83.17;92435.75;5012519;28;20250;-76
2022/04/05 04:06:06;;;;;;;11.77;11.17;;;;;;;2.30;83.82;92459.81;5012455;28;20674;-76
2022/04/05 04:08:32;;;;;;;11.13;10.63;;;;;;;2.42;84.44;92462.31;5010466;28;20227;-76
2022/04/05 04:10:57;;;;;;;10.67;10.20;;;;;;;2.42;84.32;92457.16;5010898;28;20191;-76
2022/04/05 04:13:23;;;;;;;9.80;9.40;;;;;;;2.45;84.29;92457.47;5006199;28;20227;-76
2022/04/05 04:15:48;;;;;;;10.13;9.63;;;;;;;2.56;83.48;92459.22;4993033;28;21038;-76
2022/04/05 04:18:14;;;;;;;10.27;9.87;;;;;;;2.43;83.99;92463.88;4996319;28;20223;-78
2022/04/05 04:20:42;;;;;;;11.57;10.87;;;;;;;2.50;83.98;92459.34;5012162;28;20219;-77
2022/04/05 04:23:08;;;;;;;14.70;13.27;;;;;;;2.73;82.54;92472.09;5006132;28;20235;-75
2022/04/05 04:25:34;;;;;;;27.67;17.87;;;;;;;2.83;83.03;92472.25;5007651;28;20194;-81
2022/04/05 04:28:00;;;;;;;40.43;20.60;;;;;;;2.76;83.03;92469.81;5008351;28;20283;-77
2022/04/05 04:30:25;;;;;;;45.17;21.93;;;;;;;2.88;82.85;92473.09;5007094;28;20187;-76
2022/04/05 04:32:51;;;;;;;41.27;21.13;;;;;;;2.98;81.74;92472.47;5007987;28;20199;-76
2022/04/05 04:35:16;;;;;;;22.87;15.17;;;;;;;3.00;81.60;92475.59;5006678;28;21145;-77
2022/04/05 04:37:42;;;;;;;13.17;12.07;;;;;;;3.10;80.75;92476.53;5008699;28;20262;-76
2022/04/05 04:40:08;;;;;;;13.90;12.90;;;;;;;3.14;81.04;92482.00;5006115;28;20246;-75
2022/04/05 04:42:34;;;;;;;15.77;13.97;;;;;;;3.23;80.62;92483.16;5010316;28;20184;-74
2022/04/05 04:45:00;;;;;;;15.93;14.40;;;;;;;3.24;81.69;92471.81;5010322;28;20266;-75
2022/04/05 04:47:26;;;;;;;15.10;13.60;;;;;;;3.44;80.85;92490.13;5010962;28;20191;-77
2022/04/05 04:49:51;;;;;;;14.77;13.43;;;;;;;3.48;80.55;92468.00;5009010;28;20233;-82
2022/04/05 04:52:16;;;;;;;18.43;16.43;;;;;;;3.50;80.87;92475.50;5011243;28;20191;-75
2022/04/05 04:54:42;;;;;;;13.27;11.97;;;;;;;3.26;81.29;92483.47;5010701;28;20258;-75
2022/04/05 04:57:07;;;;;;;13.57;12.77;;;;;;;3.75;79.49;92492.06;5010597;28;20223;-80
2022/04/05 04:59:33;;;;;;;14.83;13.63;;;;;;;3.84;79.99;92488.06;5009898;28;20235;-77
2022/04/05 05:01:58;;;;;;;15.07;13.83;;;;;;;3.89;79.56;92488.13;5006442;28;20194;-77
2022/04/05 05:04:24;;;;;;;14.67;13.40;;;;;;;3.99;78.93;92497.78;5008862;28;20255;-77
2022/04/05 05:06:51;;;;;;;14.13;13.03;;;;;;;4.16;77.69;92493.31;5010781;28;20232;-77
2022/04/05 05:09:16;;;;;;;13.73;12.87;;;;;;;4.02;78.52;92490.34;5008776;28;20241;-78
2022/04/05 05:11:44;;;;;;;14.60;13.40;;;;;;;3.81;78.77;92449.84;5010506;28;20219;-78
2022/04/05 05:14:09;;;;;;;14.03;12.90;;;;;;;4.14;78.11;92493.56;5008844;28;20293;-76
2022/04/05 05:16:35;;;;;;;14.33;13.30;;;;;;;3.90;79.47;92497.44;5010648;28;20246;-76
2022/04/05 05:19:00;;;;;;;14.87;13.77;;;;;;;3.51;80.35;92474.47;5009331;28;20314;-76
2022/04/05 05:21:26;;;;;;;14.97;13.87;;;;;;;3.47;81.37;92494.06;5009464;28;20255;-76
2022/04/05 05:23:51;;;;;;;15.00;13.90;;;;;;;3.87;80.10;92497.91;5010234;28;20234;-76
2022/04/05 05:26:17;;;;;;;13.37;12.47;;;;;;;3.47;82.12;92502.56;5010835;28;20210;-76
2022/04/05 05:28:42;;;;;;;15.17;14.10;;;;;;;3.79;80.09;92498.34;5010478;28;20246;-76
2022/04/05 05:31:08;;;;;;;15.03;12.70;;;;;;;4.16;79.00;92507.03;5011263;28;20190;-76
2022/04/05 05:33:33;;;;;;;15.23;13.77;;;;;;;4.25;78.71;92508.16;5010364;28;20223;-76
2022/04/05 05:35:59;;;;;;;14.70;13.33;;;;;;;4.18;79.40;92507.56;5010112;28;20199;-75
2022/04/05 05:38:25;;;;;;;14.23;13.03;;;;;;;4.19;79.83;92498.00;5009927;28;20250;-75
2022/04/05 05:40:51;;;;;;;15.07;13.77;;;;;;;4.32;78.77;92502.81;5010595;28;20195;-75
2022/04/05 05:43:17;;;;;;;14.23;12.90;;;;;;;4.41;78.28;92507.28;5009975;28;20250;-76
2022/04/05 05:45:42;;;;;;;14.40;13.40;;;;;;;4.39;78.52;92499.00;5009762;28;20222;-76
2022/04/05 05:48:08;;;;;;;16.63;15.17;;;;;;;4.39;78.73;92500.81;5009764;28;21106;-76
2022/04/05 05:50:35;;;;;;;15.67;14.40;;;;;;;4.63;78.19;92509.81;5008713;28;20194;-76
2022/04/05 05:53:02;;;;;;;15.77;14.27;;;;;;;4.62;77.47;92490.94;5009688;28;20187;-76
2022/04/05 05:55:28;;;;;;;14.83;13.17;;;;;;;4.46;77.86;92504.78;5010633;28;20202;-77
2022/04/05 05:57:54;;;;;;;14.63;13.57;;;;;;;4.72;77.22;92516.91;5007739;28;20219;-75
2022/04/05 06:00:21;;;;;;;16.40;15.07;;;;;;;4.59;77.83;92511.34;5008674;28;20194;-74
2022/04/05 06:02:49;;;;;;;15.53;14.03;;;;;;;4.38;78.86;92517.34;5009768;28;20184;-75
2022/04/05 06:05:14;;;;;;;14.23;13.10;;;;;;;4.63;76.89;92465.88;5010514;28;20188;-77
2022/04/05 06:07:41;;;;;;;15.23;13.67;;;;;;;5.24;75.14;92514.47;5010108;28;20259;-76
2022/04/05 06:10:07;;;;;;;14.33;12.77;;;;;;;5.08;75.65;92512.00;5009910;28;20215;-76
2022/04/05 06:12:37;;;;;;;14.03;13.13;;;;;;;4.97;77.09;92504.19;5010148;28;20192;-76
2022/04/05 06:15:03;;;;;;;14.10;12.93;;;;;;;5.42;74.85;92506.31;4990553;28;20200;-76
2022/04/05 06:17:29;;;;;;;13.87;12.80;;;;;;;5.04;75.91;92503.19;4989412;28;20220;-77
2022/04/05 06:19:54;;;;;;;13.33;12.33;;;;;;;5.36;75.71;92499.53;5007819;28;20290;-78
2022/04/05 06:22:19;;;;;;;14.57;13.37;;;;;;;5.78;74.70;92499.53;5009206;28;20242;-79
2022/04/05 06:24:46;;;;;;;12.97;12.03;;;;;;;6.26;71.28;92496.63;5006146;28;20239;-79
2022/04/05 06:27:13;;;;;;;12.17;11.30;;;;;;;6.42;70.07;92493.84;5008802;28;20176;-78
2022/04/05 06:29:38;;;;;;;12.73;11.80;;;;;;;6.10;69.22;92456.94;5009900;28;20238;-78
2022/04/05 06:32:04;;;;;;;11.50;10.60;;;;;;;6.36;68.32;92502.66;5009602;28;20211;-79
2022/04/05 06:34:30;;;;;;;14.63;13.50;;;;;;;6.05;69.64;92471.69;5007920;28;20223;-84
2022/04/05 06:36:55;;;;;;;13.50;12.47;;;;;;;5.80;71.09;92493.06;5008338;28;20226;-79
2022/04/05 06:39:22;;;;;;;13.30;12.10;;;;;;;6.67;68.19;92508.69;5009295;28;20313;-78
2022/04/05 06:41:47;;;;;;;13.50;12.53;;;;;;;6.66;67.85;92478.59;5007999;28;20207;-79
2022/04/05 06:44:13;;;;;;;14.07;12.87;;;;;;;7.12;66.06;92508.72;5009315;28;20226;-80
2022/04/05 06:46:38;;;;;;;16.40;14.90;;;;;;;7.43;65.80;92501.69;5007840;28;20532;-84
2022/04/05 06:49:03;;;;;;;14.87;13.67;;;;;;;7.12;67.09;92508.72;5009101;28;20246;-84
2022/04/05 06:51:30;;;;;;;15.37;14.07;;;;;;;6.80;69.60;92504.81;5008631;28;20187;-80
2022/04/05 06:53:57;;;;;;;15.27;14.13;;;;;;;6.69;69.89;92480.69;5008529;28;20227;-81
2022/04/05 06:56:25;;;;;;;15.00;13.77;;;;;;;7.03;67.96;92510.28;5009430;28;20195;-80
2022/04/05 06:58:51;;;;;;;14.77;13.77;;;;;;;6.40;70.13;92474.38;5007332;28;20227;-80
2022/04/05 07:01:16;;;;;;;12.77;11.90;;;;;;;6.95;66.73;92512.59;5008867;28;20176;-80
2022/04/05 07:03:41;;;;;;;13.33;12.37;;;;;;;6.89;67.07;92496.25;5005538;28;20231;-80
2022/04/05 07:06:07;;;;;;;14.73;13.40;;;;;;;6.82;68.04;92489.78;5024558;28;20191;-78
2022/04/05 07:08:32;;;;;;;14.23;12.93;;;;;;;6.44;68.91;92489.16;5008610;28;20219;-78
2022/04/05 07:10:58;;;;;;;13.87;12.97;;;;;;;6.95;67.51;92469.28;5009042;28;20186;-79
2022/04/05 07:13:23;;;;;;;13.83;12.70;;;;;;;7.42;65.13;92500.94;5006941;28;20290;-79
2022/04/05 07:15:49;;;;;;;22.40;12.23;;;;;;;7.44;63.38;92503.25;5008172;28;20302;-79
2022/04/05 07:18:15;;;;;;;13.23;12.33;;;;;;;7.28;65.17;92496.50;5009018;28;20219;-80
2022/04/05 07:20:40;;;;;;;12.07;11.27;;;;;;;7.64;63.47;92504.00;5007645;28;20251;-80
2022/04/05 07:23:06;;;;;;;12.13;11.07;;;;;;;7.55;64.17;92484.78;5008348;28;20227;-80
2022/04/05 07:25:34;;;;;;;13.33;12.30;;;;;;;7.13;65.91;92484.31;5009100;28;20234;-80
2022/04/05 07:28:02;;;;;;;12.77;11.87;;;;;;;7.51;65.34;92482.97;5009286;28;20203;-80
2022/04/05 07:30:27;;;;;;;13.57;12.47;;;;;;;7.87;64.77;92493.03;5008703;28;20274;-79
2022/04/05 07:32:53;;;;;;;13.90;12.53;;;;;;;8.37;62.53;92506.91;5006913;28;20190;-76
2022/04/05 07:35:19;;;;;;;12.63;11.73;;;;;;;8.14;62.35;92474.47;5007222;28;20244;-76
2022/04/05 07:37:44;;;;;;;12.83;11.80;;;;;;;8.09;62.55;92480.47;5008271;28;20246;-76
2022/04/05 07:40:10;;;;;;;12.57;11.60;;;;;;;8.27;60.95;92502.53;5008712;28;20180;-76
2022/04/05 07:42:37;;;;;;;12.40;11.50;;;;;;;7.93;61.58;92510.19;5007548;28;20275;-78
2022/04/05 07:45:04;;;;;;;12.23;11.33;;;;;;;8.29;61.32;92504.88;5014077;28;20254;-77
2022/04/05 07:47:29;;;;;;;12.50;11.60;;;;;;;8.25;60.95;92488.25;5008021;28;20182;-77
2022/04/05 07:49:55;;;;;;;13.13;12.33;;;;;;;8.12;62.76;92490.34;5008088;28;20291;-78
2022/04/05 07:52:20;;;;;;;13.33;12.17;;;;;;;8.43;61.21;92511.06;5008382;28;20184;-78
2022/04/05 07:54:46;;;;;;;11.30;10.40;;;;;;;8.35;61.87;92511.59;5008551;28;20225;-74
2022/04/05 07:57:13;;;;;;;11.97;11.13;;;;;;;8.42;61.06;92499.84;5008159;28;20739;-74
2022/04/05 07:59:58;;;;;;;12.67;11.93;;;;;;;8.71;61.75;92500.75;5006805;28;20224;-74
2022/04/05 08:02:24;;;;;;;11.37;10.70;;;;;;;8.96;58.41;92499.81;5007708;28;20192;-74
2022/04/05 08:04:49;;;;;;;10.77;10.17;;;;;;;8.91;59.13;92505.06;5008162;28;20287;-75
2022/04/05 08:07:14;;;;;;;11.87;11.03;;;;;;;9.04;59.22;92497.41;5008732;28;20239;-74
2022/04/05 08:09:40;;;;;;;11.63;10.87;;;;;;;8.84;59.99;92507.19;5005548;28;20318;-74
2022/04/05 08:12:06;;;;;;;12.37;11.53;;;;;;;8.91;58.71;92481.63;5007389;28;20201;-74
2022/04/05 08:14:31;;;;;;;11.67;10.83;;;;;;;8.50;60.77;92504.50;5007224;28;20251;-74
2022/04/05 08:16:57;;;;;;;13.20;12.33;;;;;;;8.42;60.97;92493.91;5004828;28;20238;-74
2022/04/05 08:19:24;;;;;;;13.33;12.20;;;;;;;8.29;61.40;92486.66;5004593;28;20242;-74
2022/04/05 08:21:49;;;;;;;11.93;11.23;;;;;;;8.90;59.74;92485.28;5020377;28;20223;-74
2022/04/05 08:24:15;;;;;;;13.47;12.47;;;;;;;9.04;59.09;92496.66;5005713;28;20219;-75
2022/04/05 08:26:41;;;;;;;12.97;11.87;;;;;;;9.28;58.11;92487.06;5011349;28;20210;-74
2022/04/05 08:29:06;;;;;;;12.57;11.60;;;;;;;9.32;58.12;92493.31;5008713;28;21238;-74
2022/04/05 08:31:31;;;;;;;12.80;11.97;;;;;;;9.25;57.64;92482.41;5011255;28;20222;-74
2022/04/05 08:33:57;;;;;;;14.10;12.73;;;;;;;9.32;57.38;92493.31;5008412;28;20219;-74
2022/04/05 08:36:22;;;;;;;12.73;11.53;;;;;;;9.31;57.82;92476.88;5007500;28;20191;-74
2022/04/05 08:38:48;;;;;;;12.63;11.37;;;;;;;9.23;58.73;92484.53;5009299;28;20264;-74
2022/04/05 08:41:18;;;;;;;13.93;12.80;;;;;;;9.18;57.79;92469.69;5010715;28;20253;-73
2022/04/05 08:43:44;;;;;;;12.87;11.77;;;;;;;9.74;55.94;92488.22;5022542;28;20221;-74
2022/04/05 08:46:11;;;;;;;11.80;11.03;;;;;;;9.56;54.66;92484.47;5009595;28;20200;-74
2022/04/05 08:48:36;;;;;;;12.60;11.73;;;;;;;9.48;55.46;92484.28;5009328;28;20222;-74
2022/04/05 08:51:03;;;;;;;11.87;11.13;;;;;;;9.69;54.10;92477.84;5010550;28;20211;-74
2022/04/05 08:53:30;;;;;;;11.60;10.87;;;;;;;9.56;54.30;92481.09;5011022;28;20570;-74
2022/04/05 08:55:56;;;;;;;12.10;11.23;;;;;;;8.72;55.16;92475.50;5010734;28;20187;-74
2022/04/05 08:58:22;;;;;;;11.33;10.60;;;;;;;9.06;54.63;92463.28;5009799;28;20238;-74
2022/04/05 09:00:47;;;;;;;12.43;11.63;;;;;;;9.55;52.14;92466.53;5009645;28;20196;-74
2022/04/05 09:03:13;;;;;;;12.03;11.23;;;;;;;9.45;50.99;92456.19;5009644;28;20230;-74
2022/04/05 09:05:40;;;;;;;11.83;11.13;;;;;;;9.36;51.42;92463.03;5010130;28;20180;-74
2022/04/05 09:08:13;;;;;;;11.27;10.63;;;;;;;9.51;50.37;92453.25;5010875;28;20227;-74
2022/04/05 09:10:40;;;;;;;10.37;9.77;;;;;;;9.78;48.84;92457.94;5010769;28;20204;-74
2022/04/05 09:13:09;;;;;;;12.07;11.37;;;;;;;9.75;48.43;92461.09;5010523;28;20257;-74
2022/04/05 09:15:35;;;;;;;11.60;10.90;;;;;;;10.07;45.75;92457.91;5010400;28;20187;-74
2022/04/05 09:18:01;;;;;;;9.77;9.20;;;;;;;10.16;45.56;92454.44;5010727;28;20242;-74
2022/04/05 09:20:27;;;;;;;10.73;10.03;;;;;;;10.25;48.16;92451.97;5011979;28;20199;-74
2022/04/05 09:22:54;;;;;;;11.00;10.40;;;;;;;10.30;47.05;92452.69;5010829;28;20210;-74
2022/04/05 09:25:20;;;;;;;11.83;10.87;;;;;;;10.35;47.50;92446.63;5009219;28;20168;-73
2022/04/05 09:27:50;;;;;;;11.10;10.50;;;;;;;10.44;42.38;92442.31;5011337;28;20249;-74
2022/04/05 09:30:31;;;;;;;10.50;10.00;;;;;;;10.54;41.76;92442.97;5009605;28;20294;-74
2022/04/05 09:32:57;;;;;;;9.47;8.97;;;;;;;10.15;43.17;92445.03;5010836;28;20226;-74
2022/04/05 09:35:43;;;;;;;11.10;10.40;;;;;;;10.03;46.40;92436.81;5010434;28;20202;-74
2022/04/05 09:38:14;;;;;;;11.83;11.13;;;;;;;10.09;47.13;92435.72;5011066;28;20235;-74
2022/04/05 09:40:41;;;;;;;11.37;10.67;;;;;;;10.58;44.98;92436.13;5010476;28;20188;-74
2022/04/05 09:43:15;;;;;;;11.33;10.63;;;;;;;10.88;45.32;92440.16;5010835;28;20234;-76
2022/04/05 09:45:49;;;;;;;9.63;9.13;;;;;;;10.88;45.26;92435.69;5011029;28;20191;-74
2022/04/05 09:48:22;;;;;;;11.00;10.33;;;;;;;10.80;46.13;92435.56;5009866;28;20753;-74
2022/04/05 09:51:10;;;;;;;11.90;11.20;;;;;;;10.08;48.93;92434.16;5010632;28;20270;-74
2022/04/05 09:53:39;;;;;;;9.77;9.27;;;;;;;9.94;48.78;92429.88;5010302;28;20299;-74
2022/04/05 09:56:11;;;;;;;10.93;10.33;;;;;;;9.97;48.36;92426.72;5008304;28;20188;-74
2022/04/05 09:58:50;;;;;;;11.43;10.53;;;;;;;10.56;45.79;92411.34;5009136;28;20295;-74
2022/04/05 10:01:17;;;;;;;11.70;10.93;;;;;;;10.83;45.21;92421.94;5008166;28;20196;-77
2022/04/05 10:03:56;;;;;;;10.67;10.03;;;;;;;10.54;45.88;92406.41;5009776;28;20223;-77
2022/04/05 10:06:22;;;;;;;12.23;11.17;;;;;;;10.69;46.03;92411.41;5009985;28;20418;-76
2022/04/05 10:08:48;;;;;;;11.10;10.43;;;;;;;10.29;47.49;92408.63;5008978;28;20230;-74
2022/04/05 10:11:14;;;;;;;10.73;10.03;;;;;;;10.36;46.82;92409.81;5009449;28;20256;-73
2022/04/05 10:13:41;;;;;;;11.03;10.23;;;;;;;10.48;46.67;92378.84;5010074;28;20262;-74
2022/04/05 10:16:11;;;;;;;11.93;11.13;;;;;;;10.15;48.22;92399.94;5010290;28;20222;-73
2022/04/05 10:18:37;;;;;;;12.23;11.10;;;;;;;10.19;48.45;92367.78;5007778;28;20294;-72
2022/04/05 10:21:04;;;;;;;12.03;11.13;;;;;;;10.33;47.07;92389.50;5009095;28;20250;-73
2022/04/05 10:23:31;;;;;;;11.07;10.53;;;;;;;10.51;47.96;92391.31;5007626;28;20289;-73
2022/04/05 10:25:58;;;;;;;13.07;12.03;;;;;;;10.79;47.28;92381.78;5009061;28;20221;-73
2022/04/05 10:28:31;;;;;;;11.00;10.30;;;;;;;10.95;46.17;92383.09;5008344;28;20239;-72
2022/04/05 10:31:19;;;;;;;11.67;10.87;;;;;;;11.30;45.38;92388.50;5008559;28;20269;-72
2022/04/05 10:34:14;;;;;;;12.60;11.80;;;;;;;11.15;43.83;92387.97;5006435;28;20772;-73
2022/04/05 10:36:51;;;;;;;11.30;10.60;;;;;;;11.15;45.14;92380.94;5008010;28;20271;-73
2022/04/05 10:39:19;;;;;;;9.77;9.27;;;;;;;11.09;44.83;92382.09;5010090;28;20243;-73
2022/04/05 10:42:13;;;;;;;10.33;9.73;;;;;;;11.12;44.91;92386.72;5009737;28;20187;-72
2022/04/05 10:44:46;;;;;;;10.50;9.90;;;;;;;10.90;47.06;92378.72;5009270;28;20231;-73
2022/04/05 10:47:12;;;;;;;11.50;10.77;;;;;;;10.70;46.59;92373.81;5009445;28;20194;-74
2022/04/05 10:49:42;;;;;;;11.07;10.30;;;;;;;11.03;45.26;92375.41;5009740;28;20307;-73
2022/04/05 10:52:07;;;;;;;11.63;10.83;;;;;;;10.96;44.84;92372.34;5009005;28;20191;-73
2022/04/05 10:55:06;;;;;;;11.57;10.67;;;;;;;10.91;45.09;92375.03;5008010;28;20230;-73
2022/04/05 10:57:34;;;;;;;11.47;10.77;;;;;;;10.47;45.79;92327.72;5009139;28;20215;-73
2022/04/05 11:00:08;;;;;;;11.03;10.40;;;;;;;11.05;46.39;92359.44;5009676;28;20330;-73
2022/04/05 11:02:37;;;;;;;10.27;9.60;;;;;;;11.21;48.58;92358.09;5009298;28;20249;-74
2022/04/05 11:05:04;;;;;;;10.77;10.00;;;;;;;11.35;44.14;92364.13;5009413;28;20219;-72
2022/04/05 11:07:52;;;;;;;11.57;10.63;;;;;;;11.35;44.46;92354.44;5008819;28;20203;-73
2022/04/05 11:10:19;;;;;;;10.97;10.27;;;;;;;11.32;44.07;92354.25;5007592;28;20217;-74
2022/04/05 11:12:45;;;;;;;11.00;10.30;;;;;;;11.61;44.76;92351.38;5008941;28;20220;-73
2022/04/05 11:15:14;;;;;;;11.80;11.00;;;;;;;11.80;44.35;92336.38;5009288;28;20194;-73
2022/04/05 11:17:42;;;;;;;10.47;9.87;;;;;;;11.97;42.56;92354.88;5009740;28;20250;-73
2022/04/05 11:20:09;;;;;;;10.87;10.27;;;;;;;12.28;41.51;92340.09;5024084;28;20229;-73
2022/04/05 11:22:37;;;;;;;10.70;9.97;;;;;;;11.83;42.52;92333.94;5007729;28;20212;-73
2022/04/05 11:25:07;;;;;;;11.70;11.00;;;;;;;12.24;42.34;92328.63;5008657;28;20292;-73
2022/04/05 11:27:48;;;;;;;11.27;10.50;;;;;;;12.08;42.52;92324.78;5008303;28;20216;-74